sensor_id;sensor_type;location;lat;lon;timestamp;P1;durP1;ratioP1;P2;durP2;ratioP2
23866;SDS011;12114;53.404;-1.502;2022-09-12T00:00:19;6.80;;;1.30;;
23866;SDS011;12114;53.404;-1.502;2022-09-12T00:02:50;4.38;;;1.13;;
23866;SDS011;12114;53.404;-1.502;2022-09-12T00:05:15;2.70;;;1.30;;
23866;SDS011;12114;53.404;-1.502;2022-09-12T00:07:41;2.75;;;1.33;;
23866;SDS011;12114;53.404;-1.502;2022-09-12T00:10:06;3.33;;;1.13;;
23866;SDS011;12114;53.404;-1.502;2022-09-12T00:12:33;3.60;;;1.58;;
23866;SDS011;12114;53.404;-1.502;2022-09-12T00:14:58;2.90;;;1.30;;
23866;SDS011;12114;53.404;-1.502;2022-09-12T00:17:23;3.00;;;1.30;;
23866;SDS011;12114;53.404;-1.502;2022-09-12T00:19:49;2.05;;;1.30;;
23866;SDS011;12114;53.404;-1.502;2022-09-12T00:22:14;4.07;;;1.98;;
23866;SDS011;12114;53.404;-1.502;2022-09-12T00:24:39;5.78;;;1.63;;
23866;SDS011;12114;53.404;-1.502;2022-09-12T00:27:05;3.75;;;1.70;;
23866;SDS011;12114;53.404;-1.502;2022-09-12T00:29:30;3.20;;;1.48;;
23866;SDS011;12114;53.404;-1.502;2022-09-12T00:31:56;4.65;;;1.70;;
23866;SDS011;12114;53.404;-1.502;2022-09-12T00:34:21;3.03;;;1.58;;
23866;SDS011;12114;53.404;-1.502;2022-09-12T00:36:47;3.10;;;1.55;;
23866;SDS011;12114;53.404;-1.502;2022-09-12T00:39:15;5.20;;;1.63;;
23866;SDS011;12114;53.404;-1.502;2022-09-12T00:41:42;7.03;;;1.90;;
23866;SDS011;12114;53.404;-1.502;2022-09-12T00:46:41;4.15;;;2.38;;
23866;SDS011;12114;53.404;-1.502;2022-09-12T00:51:37;5.05;;;2.15;;
23866;SDS011;12114;53.404;-1.502;2022-09-12T00:54:05;4.53;;;2.10;;
23866;SDS011;12114;53.404;-1.502;2022-09-12T00:56:32;4.03;;;2.10;;
23866;SDS011;12114;53.404;-1.502;2022-09-12T00:59:00;6.70;;;2.40;;
23866;SDS011;12114;53.404;-1.502;2022-09-12T01:01:27;4.03;;;2.40;;
23866;SDS011;12114;53.404;-1.502;2022-09-12T01:03:52;4.20;;;2.22;;
23866;SDS011;12114;53.404;-1.502;2022-09-12T01:06:20;6.78;;;2.60;;
23866;SDS011;12114;53.404;-1.502;2022-09-12T01:08:47;3.40;;;2.58;;
23866;SDS011;12114;53.404;-1.502;2022-09-12T01:11:12;4.07;;;2.47;;
23866;SDS011;12114;53.404;-1.502;2022-09-12T01:13:38;5.10;;;2.53;;
23866;SDS011;12114;53.404;-1.502;2022-09-12T01:16:04;5.95;;;2.72;;
23866;SDS011;12114;53.404;-1.502;2022-09-12T01:21:16;5.88;;;2.65;;
23866;SDS011;12114;53.404;-1.502;2022-09-12T01:36:43;5.35;;;3.38;;
23866;SDS011;12114;53.404;-1.502;2022-09-12T01:39:24;5.25;;;3.50;;
23866;SDS011;12114;53.404;-1.502;2022-09-12T01:44:38;4.93;;;3.70;;
23866;SDS011;12114;53.404;-1.502;2022-09-12T01:49:59;5.97;;;4.07;;
23866;SDS011;12114;53.404;-1.502;2022-09-12T01:55:18;4.00;;;3.55;;
23866;SDS011;12114;53.404;-1.502;2022-09-12T01:57:57;7.32;;;4.45;;
23866;SDS011;12114;53.404;-1.502;2022-09-12T02:00:28;7.38;;;4.70;;
23866;SDS011;12114;53.404;-1.502;2022-09-12T02:10:31;8.38;;;4.53;;
23866;SDS011;12114;53.404;-1.502;2022-09-12T02:12:58;8.30;;;4.78;;
23866;SDS011;12114;53.404;-1.502;2022-09-12T02:15:27;7.90;;;5.03;;
23866;SDS011;12114;53.404;-1.502;2022-09-12T02:17:54;6.75;;;4.82;;
23866;SDS011;12114;53.404;-1.502;2022-09-12T02:20:38;9.80;;;4.93;;
23866;SDS011;12114;53.404;-1.502;2022-09-12T02:23:06;12.05;;;5.43;;
23866;SDS011;12114;53.404;-1.502;2022-09-12T02:25:33;6.97;;;5.25;;
23866;SDS011;12114;53.404;-1.502;2022-09-12T02:28:06;9.75;;;5.55;;
23866;SDS011;12114;53.404;-1.502;2022-09-12T02:30:40;8.55;;;5.60;;
23866;SDS011;12114;53.404;-1.502;2022-09-12T02:38:07;10.15;;;5.05;;
23866;SDS011;12114;53.404;-1.502;2022-09-12T02:40:33;9.18;;;5.32;;
23866;SDS011;12114;53.404;-1.502;2022-09-12T02:42:59;7.78;;;5.20;;
23866;SDS011;12114;53.404;-1.502;2022-09-12T02:45:25;7.07;;;5.22;;
23866;SDS011;12114;53.404;-1.502;2022-09-12T02:47:52;7.85;;;5.00;;
23866;SDS011;12114;53.404;-1.502;2022-09-12T02:50:19;8.40;;;5.60;;
23866;SDS011;12114;53.404;-1.502;2022-09-12T02:52:44;5.82;;;5.00;;
23866;SDS011;12114;53.404;-1.502;2022-09-12T02:55:10;6.85;;;5.25;;
23866;SDS011;12114;53.404;-1.502;2022-09-12T02:57:36;9.23;;;5.80;;
23866;SDS011;12114;53.404;-1.502;2022-09-12T03:00:02;8.20;;;5.53;;
23866;SDS011;12114;53.404;-1.502;2022-09-12T03:10:25;9.88;;;6.25;;
23866;SDS011;12114;53.404;-1.502;2022-09-12T03:23:03;10.30;;;8.05;;
23866;SDS011;12114;53.404;-1.502;2022-09-12T03:25:37;15.73;;;8.10;;
23866;SDS011;12114;53.404;-1.502;2022-09-12T03:28:09;13.85;;;8.55;;
23866;SDS011;12114;53.404;-1.502;2022-09-12T03:30:44;11.77;;;8.38;;
23866;SDS011;12114;53.404;-1.502;2022-09-12T03:33:11;11.55;;;8.63;;
23866;SDS011;12114;53.404;-1.502;2022-09-12T03:35:36;13.48;;;9.32;;
23866;SDS011;12114;53.404;-1.502;2022-09-12T03:38:02;15.55;;;10.50;;
23866;SDS011;12114;53.404;-1.502;2022-09-12T03:40:27;11.88;;;8.85;;
23866;SDS011;12114;53.404;-1.502;2022-09-12T03:42:53;10.88;;;9.10;;
23866;SDS011;12114;53.404;-1.502;2022-09-12T03:45:18;10.30;;;8.90;;
23866;SDS011;12114;53.404;-1.502;2022-09-12T03:47:44;9.55;;;7.70;;
23866;SDS011;12114;53.404;-1.502;2022-09-12T03:50:09;9.25;;;6.85;;
23866;SDS011;12114;53.404;-1.502;2022-09-12T03:52:35;10.90;;;6.75;;
23866;SDS011;12114;53.404;-1.502;2022-09-12T03:55:01;9.80;;;7.53;;
23866;SDS011;12114;53.404;-1.502;2022-09-12T03:57:26;10.45;;;7.25;;
23866;SDS011;12114;53.404;-1.502;2022-09-12T03:59:52;10.63;;;7.53;;
23866;SDS011;12114;53.404;-1.502;2022-09-12T04:02:17;9.85;;;7.38;;
23866;SDS011;12114;53.404;-1.502;2022-09-12T04:04:43;10.15;;;7.45;;
23866;SDS011;12114;53.404;-1.502;2022-09-12T04:07:09;9.95;;;7.90;;
23866;SDS011;12114;53.404;-1.502;2022-09-12T04:09:34;8.40;;;7.40;;
23866;SDS011;12114;53.404;-1.502;2022-09-12T04:12:00;9.63;;;7.00;;
23866;SDS011;12114;53.404;-1.502;2022-09-12T04:14:28;10.90;;;8.35;;
23866;SDS011;12114;53.404;-1.502;2022-09-12T04:16:53;15.35;;;8.23;;
23866;SDS011;12114;53.404;-1.502;2022-09-12T04:19:19;8.98;;;8.07;;
23866;SDS011;12114;53.404;-1.502;2022-09-12T04:21:44;13.45;;;8.55;;
23866;SDS011;12114;53.404;-1.502;2022-09-12T04:24:10;13.52;;;7.82;;
23866;SDS011;12114;53.404;-1.502;2022-09-12T04:26:35;10.32;;;8.65;;
23866;SDS011;12114;53.404;-1.502;2022-09-12T04:29:01;11.10;;;8.52;;
23866;SDS011;12114;53.404;-1.502;2022-09-12T04:31:26;12.93;;;9.25;;
23866;SDS011;12114;53.404;-1.502;2022-09-12T04:33:55;12.18;;;9.23;;
23866;SDS011;12114;53.404;-1.502;2022-09-12T04:36:20;15.18;;;9.05;;
23866;SDS011;12114;53.404;-1.502;2022-09-12T04:38:47;11.88;;;8.57;;
23866;SDS011;12114;53.404;-1.502;2022-09-12T04:41:17;11.85;;;8.80;;
23866;SDS011;12114;53.404;-1.502;2022-09-12T04:43:43;12.20;;;8.77;;
23866;SDS011;12114;53.404;-1.502;2022-09-12T04:46:11;14.00;;;9.07;;
23866;SDS011;12114;53.404;-1.502;2022-09-12T04:48:37;10.95;;;9.20;;
23866;SDS011;12114;53.404;-1.502;2022-09-12T04:51:10;10.18;;;8.63;;
23866;SDS011;12114;53.404;-1.502;2022-09-12T04:53:37;18.77;;;10.52;;
23866;SDS011;12114;53.404;-1.502;2022-09-12T04:56:04;14.25;;;10.40;;
23866;SDS011;12114;53.404;-1.502;2022-09-12T04:58:31;14.27;;;10.02;;
23866;SDS011;12114;53.404;-1.502;2022-09-12T05:01:06;12.50;;;10.30;;
23866;SDS011;12114;53.404;-1.502;2022-09-12T05:03:32;15.95;;;11.30;;
23866;SDS011;12114;53.404;-1.502;2022-09-12T05:05:58;16.70;;;11.90;;
23866;SDS011;12114;53.404;-1.502;2022-09-12T05:08:25;15.95;;;11.65;;
23866;SDS011;12114;53.404;-1.502;2022-09-12T05:10:51;14.02;;;10.32;;
23866;SDS011;12114;53.404;-1.502;2022-09-12T05:13:16;15.30;;;11.43;;
23866;SDS011;12114;53.404;-1.502;2022-09-12T05:15:41;17.02;;;12.80;;
23866;SDS011;12114;53.404;-1.502;2022-09-12T05:18:07;15.38;;;10.98;;
23866;SDS011;12114;53.404;-1.502;2022-09-12T05:20:33;16.75;;;11.45;;
23866;SDS011;12114;53.404;-1.502;2022-09-12T05:22:58;13.18;;;10.93;;
23866;SDS011;12114;53.404;-1.502;2022-09-12T05:25:25;16.40;;;10.70;;
23866;SDS011;12114;53.404;-1.502;2022-09-12T05:27:53;18.63;;;11.65;;
23866;SDS011;12114;53.404;-1.502;2022-09-12T05:30:18;15.18;;;10.95;;
23866;SDS011;12114;53.404;-1.502;2022-09-12T05:32:43;13.80;;;11.18;;
23866;SDS011;12114;53.404;-1.502;2022-09-12T05:35:09;16.17;;;11.13;;
23866;SDS011;12114;53.404;-1.502;2022-09-12T05:37:35;14.38;;;11.38;;
23866;SDS011;12114;53.404;-1.502;2022-09-12T05:40:01;18.60;;;11.13;;
23866;SDS011;12114;53.404;-1.502;2022-09-12T05:42:32;12.40;;;10.85;;
23866;SDS011;12114;53.404;-1.502;2022-09-12T05:44:58;14.60;;;11.20;;
23866;SDS011;12114;53.404;-1.502;2022-09-12T05:47:23;13.85;;;10.85;;
23866;SDS011;12114;53.404;-1.502;2022-09-12T05:49:49;13.77;;;10.73;;
23866;SDS011;12114;53.404;-1.502;2022-09-12T05:52:15;15.68;;;11.68;;
23866;SDS011;12114;53.404;-1.502;2022-09-12T05:54:41;14.13;;;10.93;;
23866;SDS011;12114;53.404;-1.502;2022-09-12T05:57:06;12.48;;;10.50;;
23866;SDS011;12114;53.404;-1.502;2022-09-12T05:59:31;20.23;;;10.77;;
23866;SDS011;12114;53.404;-1.502;2022-09-12T06:01:57;15.23;;;10.55;;
23866;SDS011;12114;53.404;-1.502;2022-09-12T06:04:22;14.10;;;10.30;;
23866;SDS011;12114;53.404;-1.502;2022-09-12T06:06:48;13.88;;;10.77;;
23866;SDS011;12114;53.404;-1.502;2022-09-12T06:09:14;13.73;;;10.25;;
23866;SDS011;12114;53.404;-1.502;2022-09-12T06:11:39;14.00;;;9.85;;
23866;SDS011;12114;53.404;-1.502;2022-09-12T06:14:05;12.85;;;9.50;;
23866;SDS011;12114;53.404;-1.502;2022-09-12T06:16:31;11.48;;;9.30;;
23866;SDS011;12114;53.404;-1.502;2022-09-12T06:19:01;12.10;;;10.15;;
23866;SDS011;12114;53.404;-1.502;2022-09-12T06:21:27;14.18;;;9.05;;
23866;SDS011;12114;53.404;-1.502;2022-09-12T06:23:54;12.43;;;9.23;;
23866;SDS011;12114;53.404;-1.502;2022-09-12T06:26:20;14.25;;;9.80;;
23866;SDS011;12114;53.404;-1.502;2022-09-12T06:28:47;10.90;;;9.32;;
23866;SDS011;12114;53.404;-1.502;2022-09-12T06:31:14;11.43;;;8.57;;
23866;SDS011;12114;53.404;-1.502;2022-09-12T06:33:41;11.63;;;8.63;;
23866;SDS011;12114;53.404;-1.502;2022-09-12T06:36:08;12.55;;;8.45;;
23866;SDS011;12114;53.404;-1.502;2022-09-12T06:38:34;10.93;;;9.30;;
23866;SDS011;12114;53.404;-1.502;2022-09-12T06:40:59;13.00;;;9.07;;
23866;SDS011;12114;53.404;-1.502;2022-09-12T06:43:26;13.30;;;8.95;;
23866;SDS011;12114;53.404;-1.502;2022-09-12T06:45:52;16.40;;;9.05;;
23866;SDS011;12114;53.404;-1.502;2022-09-12T06:48:18;13.52;;;9.05;;
23866;SDS011;12114;53.404;-1.502;2022-09-12T06:50:53;12.50;;;9.02;;
23866;SDS011;12114;53.404;-1.502;2022-09-12T06:53:19;11.93;;;9.02;;
23866;SDS011;12114;53.404;-1.502;2022-09-12T06:55:44;12.95;;;8.45;;
23866;SDS011;12114;53.404;-1.502;2022-09-12T06:58:10;15.55;;;9.30;;
23866;SDS011;12114;53.404;-1.502;2022-09-12T07:00:35;12.82;;;9.02;;
23866;SDS011;12114;53.404;-1.502;2022-09-12T07:03:01;11.48;;;8.68;;
23866;SDS011;12114;53.404;-1.502;2022-09-12T07:05:26;13.82;;;9.43;;
23866;SDS011;12114;53.404;-1.502;2022-09-12T07:07:52;12.35;;;8.98;;
23866;SDS011;12114;53.404;-1.502;2022-09-12T07:10:22;10.52;;;8.77;;
23866;SDS011;12114;53.404;-1.502;2022-09-12T07:12:47;15.20;;;8.95;;
23866;SDS011;12114;53.404;-1.502;2022-09-12T07:15:12;14.10;;;9.43;;
23866;SDS011;12114;53.404;-1.502;2022-09-12T07:17:38;12.15;;;9.02;;
23866;SDS011;12114;53.404;-1.502;2022-09-12T07:20:04;12.90;;;8.95;;
23866;SDS011;12114;53.404;-1.502;2022-09-12T07:22:29;11.32;;;9.15;;
23866;SDS011;12114;53.404;-1.502;2022-09-12T07:24:57;14.38;;;9.40;;
23866;SDS011;12114;53.404;-1.502;2022-09-12T07:27:23;14.05;;;8.88;;
23866;SDS011;12114;53.404;-1.502;2022-09-12T07:29:48;14.55;;;9.48;;
23866;SDS011;12114;53.404;-1.502;2022-09-12T07:32:13;12.70;;;9.30;;
23866;SDS011;12114;53.404;-1.502;2022-09-12T07:34:39;14.95;;;9.52;;
23866;SDS011;12114;53.404;-1.502;2022-09-12T07:37:04;15.15;;;11.52;;
23866;SDS011;12114;53.404;-1.502;2022-09-12T07:39:30;13.55;;;8.13;;
23866;SDS011;12114;53.404;-1.502;2022-09-12T07:41:56;15.48;;;8.75;;
23866;SDS011;12114;53.404;-1.502;2022-09-12T07:44:22;11.55;;;9.10;;
23866;SDS011;12114;53.404;-1.502;2022-09-12T07:46:49;11.95;;;8.52;;
23866;SDS011;12114;53.404;-1.502;2022-09-12T07:49:14;11.80;;;8.57;;
23866;SDS011;12114;53.404;-1.502;2022-09-12T07:51:40;12.93;;;7.70;;
23866;SDS011;12114;53.404;-1.502;2022-09-12T07:54:08;10.50;;;7.03;;
23866;SDS011;12114;53.404;-1.502;2022-09-12T07:56:34;11.32;;;6.68;;
23866;SDS011;12114;53.404;-1.502;2022-09-12T07:58:59;9.55;;;6.90;;
23866;SDS011;12114;53.404;-1.502;2022-09-12T08:01:25;11.85;;;7.40;;
23866;SDS011;12114;53.404;-1.502;2022-09-12T08:03:54;9.15;;;6.43;;
23866;SDS011;12114;53.404;-1.502;2022-09-12T08:06:21;10.27;;;6.50;;
23866;SDS011;12114;53.404;-1.502;2022-09-12T08:08:49;12.38;;;7.78;;
23866;SDS011;12114;53.404;-1.502;2022-09-12T08:11:16;12.20;;;6.65;;
23866;SDS011;12114;53.404;-1.502;2022-09-12T08:13:42;11.02;;;7.03;;
23866;SDS011;12114;53.404;-1.502;2022-09-12T08:16:11;10.57;;;6.95;;
23866;SDS011;12114;53.404;-1.502;2022-09-12T08:18:37;9.63;;;6.28;;
23866;SDS011;12114;53.404;-1.502;2022-09-12T08:21:03;10.93;;;6.70;;
23866;SDS011;12114;53.404;-1.502;2022-09-12T08:23:29;10.35;;;6.45;;
23866;SDS011;12114;53.404;-1.502;2022-09-12T08:25:58;8.93;;;6.38;;
23866;SDS011;12114;53.404;-1.502;2022-09-12T08:28:24;10.75;;;6.38;;
23866;SDS011;12114;53.404;-1.502;2022-09-12T08:30:50;10.80;;;6.35;;
23866;SDS011;12114;53.404;-1.502;2022-09-12T08:33:17;9.48;;;5.90;;
23866;SDS011;12114;53.404;-1.502;2022-09-12T08:35:42;8.60;;;5.60;;
23866;SDS011;12114;53.404;-1.502;2022-09-12T08:38:07;9.82;;;6.45;;
23866;SDS011;12114;53.404;-1.502;2022-09-12T08:40:36;9.90;;;5.90;;
23866;SDS011;12114;53.404;-1.502;2022-09-12T08:45:52;10.43;;;4.55;;
23866;SDS011;12114;53.404;-1.502;2022-09-12T08:48:19;9.63;;;5.18;;
23866;SDS011;12114;53.404;-1.502;2022-09-12T08:50:45;7.30;;;4.93;;
23866;SDS011;12114;53.404;-1.502;2022-09-12T08:53:13;9.18;;;4.82;;
23866;SDS011;12114;53.404;-1.502;2022-09-12T08:55:39;6.95;;;3.90;;
23866;SDS011;12114;53.404;-1.502;2022-09-12T08:58:18;8.02;;;4.20;;
23866;SDS011;12114;53.404;-1.502;2022-09-12T09:01:00;5.63;;;3.90;;
23866;SDS011;12114;53.404;-1.502;2022-09-12T09:17:24;4.85;;;2.83;;
23866;SDS011;12114;53.404;-1.502;2022-09-12T09:20:16;3.53;;;2.53;;
23866;SDS011;12114;53.404;-1.502;2022-09-12T09:22:47;4.90;;;2.42;;
23866;SDS011;12114;53.404;-1.502;2022-09-12T09:25:18;3.45;;;2.25;;
23866;SDS011;12114;53.404;-1.502;2022-09-12T09:30:36;5.45;;;2.45;;
23866;SDS011;12114;53.404;-1.502;2022-09-12T09:33:03;3.83;;;2.38;;
23866;SDS011;12114;53.404;-1.502;2022-09-12T09:38:26;3.10;;;2.42;;
23866;SDS011;12114;53.404;-1.502;2022-09-12T09:40:58;5.03;;;2.47;;
23866;SDS011;12114;53.404;-1.502;2022-09-12T09:43:25;6.93;;;2.60;;
23866;SDS011;12114;53.404;-1.502;2022-09-12T09:45:54;3.38;;;2.33;;
23866;SDS011;12114;53.404;-1.502;2022-09-12T09:50:48;2.17;;;1.95;;
23866;SDS011;12114;53.404;-1.502;2022-09-12T09:53:32;3.58;;;2.40;;
23866;SDS011;12114;53.404;-1.502;2022-09-12T09:56:00;2.95;;;2.25;;
23866;SDS011;12114;53.404;-1.502;2022-09-12T09:58:31;3.08;;;2.53;;
23866;SDS011;12114;53.404;-1.502;2022-09-12T10:00:57;4.20;;;1.90;;
23866;SDS011;12114;53.404;-1.502;2022-09-12T10:03:28;3.83;;;2.85;;
23866;SDS011;12114;53.404;-1.502;2022-09-12T10:05:58;4.20;;;1.80;;
23866;SDS011;12114;53.404;-1.502;2022-09-12T10:08:30;3.75;;;2.70;;
23866;SDS011;12114;53.404;-1.502;2022-09-12T10:13:31;3.40;;;1.95;;
23866;SDS011;12114;53.404;-1.502;2022-09-12T10:15:59;3.67;;;1.90;;
23866;SDS011;12114;53.404;-1.502;2022-09-12T10:18:34;2.75;;;1.65;;
23866;SDS011;12114;53.404;-1.502;2022-09-12T10:21:00;4.80;;;1.70;;
23866;SDS011;12114;53.404;-1.502;2022-09-12T10:23:32;2.83;;;0.90;;
23866;SDS011;12114;53.404;-1.502;2022-09-12T10:26:00;3.92;;;1.17;;
23866;SDS011;12114;53.404;-1.502;2022-09-12T10:28:36;1.30;;;0.70;;
23866;SDS011;12114;53.404;-1.502;2022-09-12T10:31:03;1.70;;;0.57;;
23866;SDS011;12114;53.404;-1.502;2022-09-12T10:33:30;2.00;;;0.47;;
23866;SDS011;12114;53.404;-1.502;2022-09-12T10:35:58;1.42;;;0.60;;
23866;SDS011;12114;53.404;-1.502;2022-09-12T10:38:25;3.70;;;0.63;;
23866;SDS011;12114;53.404;-1.502;2022-09-12T10:41:04;3.95;;;0.50;;
23866;SDS011;12114;53.404;-1.502;2022-09-12T10:43:34;3.10;;;0.60;;
23866;SDS011;12114;53.404;-1.502;2022-09-12T10:48:38;1.85;;;0.60;;
23866;SDS011;12114;53.404;-1.502;2022-09-12T10:51:03;1.23;;;0.50;;
23866;SDS011;12114;53.404;-1.502;2022-09-12T10:53:38;3.13;;;0.65;;
23866;SDS011;12114;53.404;-1.502;2022-09-12T10:56:15;2.20;;;0.60;;
23866;SDS011;12114;53.404;-1.502;2022-09-12T10:58:45;1.48;;;0.60;;
23866;SDS011;12114;53.404;-1.502;2022-09-12T11:06:14;1.80;;;0.60;;
23866;SDS011;12114;53.404;-1.502;2022-09-12T11:08:54;3.60;;;0.73;;
23866;SDS011;12114;53.404;-1.502;2022-09-12T11:11:34;2.17;;;0.65;;
23866;SDS011;12114;53.404;-1.502;2022-09-12T11:14:11;1.17;;;0.70;;
23866;SDS011;12114;53.404;-1.502;2022-09-12T11:16:43;0.88;;;0.57;;
23866;SDS011;12114;53.404;-1.502;2022-09-12T11:19:14;2.78;;;0.98;;
23866;SDS011;12114;53.404;-1.502;2022-09-12T11:22:01;1.80;;;0.93;;
23866;SDS011;12114;53.404;-1.502;2022-09-12T11:27:08;2.08;;;0.70;;
23866;SDS011;12114;53.404;-1.502;2022-09-12T11:34:32;1.65;;;0.65;;
23866;SDS011;12114;53.404;-1.502;2022-09-12T11:39:33;1.98;;;0.60;;
23866;SDS011;12114;53.404;-1.502;2022-09-12T11:42:02;1.45;;;0.52;;
23866;SDS011;12114;53.404;-1.502;2022-09-12T11:44:39;4.22;;;0.77;;
23866;SDS011;12114;53.404;-1.502;2022-09-12T11:47:06;1.55;;;0.73;;
23866;SDS011;12114;53.404;-1.502;2022-09-12T11:49:35;1.75;;;0.60;;
23866;SDS011;12114;53.404;-1.502;2022-09-12T11:52:06;1.38;;;0.60;;
23866;SDS011;12114;53.404;-1.502;2022-09-12T11:57:10;1.88;;;0.70;;
23866;SDS011;12114;53.404;-1.502;2022-09-12T12:02:26;1.77;;;0.60;;
23866;SDS011;12114;53.404;-1.502;2022-09-12T12:05:01;2.30;;;0.65;;
23866;SDS011;12114;53.404;-1.502;2022-09-12T12:07:29;2.55;;;0.80;;
23866;SDS011;12114;53.404;-1.502;2022-09-12T12:09:55;3.03;;;0.77;;
23866;SDS011;12114;53.404;-1.502;2022-09-12T12:12:22;1.13;;;0.60;;
23866;SDS011;12114;53.404;-1.502;2022-09-12T12:14:49;4.80;;;0.68;;
23866;SDS011;12114;53.404;-1.502;2022-09-12T12:17:15;3.97;;;0.55;;
23866;SDS011;12114;53.404;-1.502;2022-09-12T12:19:41;3.20;;;0.70;;
23866;SDS011;12114;53.404;-1.502;2022-09-12T12:22:11;1.67;;;0.60;;
23866;SDS011;12114;53.404;-1.502;2022-09-12T12:27:23;1.85;;;0.50;;
23866;SDS011;12114;53.404;-1.502;2022-09-12T12:29:49;1.67;;;0.43;;
23866;SDS011;12114;53.404;-1.502;2022-09-12T12:34:41;1.42;;;0.50;;
23866;SDS011;12114;53.404;-1.502;2022-09-12T12:49:57;2.22;;;0.40;;
23866;SDS011;12114;53.404;-1.502;2022-09-12T12:52:23;1.20;;;0.60;;
23866;SDS011;12114;53.404;-1.502;2022-09-12T12:54:52;1.55;;;0.57;;
23866;SDS011;12114;53.404;-1.502;2022-09-12T12:59:57;1.35;;;0.70;;
23866;SDS011;12114;53.404;-1.502;2022-09-12T13:03:08;3.15;;;0.80;;
23866;SDS011;12114;53.404;-1.502;2022-09-12T13:05:20;2.42;;;0.60;;
23866;SDS011;12114;53.404;-1.502;2022-09-12T13:07:46;1.58;;;0.63;;
23866;SDS011;12114;53.404;-1.502;2022-09-12T13:10:19;1.23;;;0.40;;
23866;SDS011;12114;53.404;-1.502;2022-09-12T13:12:47;2.28;;;0.50;;
23866;SDS011;12114;53.404;-1.502;2022-09-12T13:17:58;1.75;;;0.40;;
23866;SDS011;12114;53.404;-1.502;2022-09-12T13:20:25;1.40;;;0.50;;
23866;SDS011;12114;53.404;-1.502;2022-09-12T13:22:53;1.20;;;0.50;;
23866;SDS011;12114;53.404;-1.502;2022-09-12T13:30:24;1.23;;;0.60;;
23866;SDS011;12114;53.404;-1.502;2022-09-12T13:32:51;1.52;;;0.70;;
23866;SDS011;12114;53.404;-1.502;2022-09-12T13:35:20;2.08;;;0.70;;
23866;SDS011;12114;53.404;-1.502;2022-09-12T13:40:17;0.80;;;0.60;;
23866;SDS011;12114;53.404;-1.502;2022-09-12T13:42:48;2.60;;;0.95;;
23866;SDS011;12114;53.404;-1.502;2022-09-12T13:45:23;1.35;;;1.00;;
23866;SDS011;12114;53.404;-1.502;2022-09-12T13:47:51;0.90;;;0.77;;
23866;SDS011;12114;53.404;-1.502;2022-09-12T13:50:26;3.05;;;0.70;;
23866;SDS011;12114;53.404;-1.502;2022-09-12T13:52:55;1.48;;;0.60;;
23866;SDS011;12114;53.404;-1.502;2022-09-12T13:55:26;0.80;;;0.40;;
23866;SDS011;12114;53.404;-1.502;2022-09-12T13:58:03;0.88;;;0.40;;
23866;SDS011;12114;53.404;-1.502;2022-09-12T14:00:30;1.65;;;0.50;;
23866;SDS011;12114;53.404;-1.502;2022-09-12T14:02:56;0.50;;;0.40;;
23866;SDS011;12114;53.404;-1.502;2022-09-12T14:05:41;3.70;;;0.55;;
23866;SDS011;12114;53.404;-1.502;2022-09-12T14:08:08;3.38;;;0.80;;
23866;SDS011;12114;53.404;-1.502;2022-09-12T14:10:42;0.68;;;0.40;;
23866;SDS011;12114;53.404;-1.502;2022-09-12T14:13:15;2.13;;;0.50;;
23866;SDS011;12114;53.404;-1.502;2022-09-12T14:15:46;1.67;;;0.45;;
23866;SDS011;12114;53.404;-1.502;2022-09-12T14:18:20;1.25;;;0.40;;
23866;SDS011;12114;53.404;-1.502;2022-09-12T14:23:46;1.27;;;0.40;;
23866;SDS011;12114;53.404;-1.502;2022-09-12T14:26:07;0.90;;;0.43;;
23866;SDS011;12114;53.404;-1.502;2022-09-12T14:28:34;1.65;;;0.50;;
23866;SDS011;12114;53.404;-1.502;2022-09-12T14:31:03;1.58;;;0.30;;
23866;SDS011;12114;53.404;-1.502;2022-09-12T14:33:49;1.95;;;0.38;;
23866;SDS011;12114;53.404;-1.502;2022-09-12T14:36:16;3.05;;;1.00;;
23866;SDS011;12114;53.404;-1.502;2022-09-12T14:38:43;3.00;;;0.65;;
23866;SDS011;12114;53.404;-1.502;2022-09-12T14:41:10;1.13;;;0.40;;
23866;SDS011;12114;53.404;-1.502;2022-09-12T14:43:38;0.90;;;0.40;;
23866;SDS011;12114;53.404;-1.502;2022-09-12T14:48:45;1.05;;;0.50;;
23866;SDS011;12114;53.404;-1.502;2022-09-12T14:51:17;3.05;;;0.40;;
23866;SDS011;12114;53.404;-1.502;2022-09-12T14:53:46;0.82;;;0.40;;
23866;SDS011;12114;53.404;-1.502;2022-09-12T14:56:12;1.58;;;0.30;;
23866;SDS011;12114;53.404;-1.502;2022-09-12T14:58:38;0.50;;;0.30;;
23866;SDS011;12114;53.404;-1.502;2022-09-12T15:06:04;1.13;;;0.43;;
23866;SDS011;12114;53.404;-1.502;2022-09-12T15:08:32;0.57;;;0.30;;
23866;SDS011;12114;53.404;-1.502;2022-09-12T15:10:58;0.50;;;0.30;;
23866;SDS011;12114;53.404;-1.502;2022-09-12T15:13:25;0.73;;;0.35;;
23866;SDS011;12114;53.404;-1.502;2022-09-12T15:15:55;0.70;;;0.40;;
23866;SDS011;12114;53.404;-1.502;2022-09-12T15:18:22;1.30;;;0.60;;
23866;SDS011;12114;53.404;-1.502;2022-09-12T15:20:52;1.08;;;0.40;;
23866;SDS011;12114;53.404;-1.502;2022-09-12T15:26:04;1.38;;;0.50;;
23866;SDS011;12114;53.404;-1.502;2022-09-12T15:28:30;0.70;;;0.40;;
23866;SDS011;12114;53.404;-1.502;2022-09-12T15:30:56;1.75;;;0.40;;
23866;SDS011;12114;53.404;-1.502;2022-09-12T15:33:22;1.63;;;0.40;;
23866;SDS011;12114;53.404;-1.502;2022-09-12T15:35:48;1.13;;;0.40;;
23866;SDS011;12114;53.404;-1.502;2022-09-12T15:38:13;0.90;;;0.60;;
23866;SDS011;12114;53.404;-1.502;2022-09-12T15:40:39;0.95;;;0.50;;
23866;SDS011;12114;53.404;-1.502;2022-09-12T15:43:05;1.77;;;0.50;;
23866;SDS011;12114;53.404;-1.502;2022-09-12T15:45:31;4.00;;;0.60;;
23866;SDS011;12114;53.404;-1.502;2022-09-12T15:47:58;1.63;;;0.63;;
23866;SDS011;12114;53.404;-1.502;2022-09-12T15:50:23;1.42;;;0.70;;
23866;SDS011;12114;53.404;-1.502;2022-09-12T15:52:49;1.23;;;0.80;;
23866;SDS011;12114;53.404;-1.502;2022-09-12T15:55:17;2.80;;;1.73;;
23866;SDS011;12114;53.404;-1.502;2022-09-12T15:57:43;2.25;;;1.15;;
23866;SDS011;12114;53.404;-1.502;2022-09-12T16:00:08;1.58;;;1.40;;
23866;SDS011;12114;53.404;-1.502;2022-09-12T16:02:35;2.38;;;1.60;;
23866;SDS011;12114;53.404;-1.502;2022-09-12T16:05:00;2.35;;;1.60;;
23866;SDS011;12114;53.404;-1.502;2022-09-12T16:07:25;2.78;;;2.40;;
23866;SDS011;12114;53.404;-1.502;2022-09-12T16:09:51;3.28;;;1.98;;
23866;SDS011;12114;53.404;-1.502;2022-09-12T16:12:17;2.53;;;2.20;;
23866;SDS011;12114;53.404;-1.502;2022-09-12T16:14:43;3.70;;;2.28;;
23866;SDS011;12114;53.404;-1.502;2022-09-12T16:17:09;2.25;;;2.03;;
23866;SDS011;12114;53.404;-1.502;2022-09-12T16:19:34;3.33;;;2.05;;
23866;SDS011;12114;53.404;-1.502;2022-09-12T16:22:00;2.28;;;1.95;;
23866;SDS011;12114;53.404;-1.502;2022-09-12T16:24:25;2.30;;;2.10;;
23866;SDS011;12114;53.404;-1.502;2022-09-12T16:26:51;3.05;;;2.25;;
23866;SDS011;12114;53.404;-1.502;2022-09-12T16:29:16;2.17;;;1.98;;
23866;SDS011;12114;53.404;-1.502;2022-09-12T16:31:41;3.10;;;2.53;;
23866;SDS011;12114;53.404;-1.502;2022-09-12T16:34:07;3.05;;;2.70;;
23866;SDS011;12114;53.404;-1.502;2022-09-12T16:36:32;2.75;;;2.55;;
23866;SDS011;12114;53.404;-1.502;2022-09-12T16:38:58;2.70;;;2.50;;
23866;SDS011;12114;53.404;-1.502;2022-09-12T16:41:24;4.38;;;2.47;;
23866;SDS011;12114;53.404;-1.502;2022-09-12T16:43:50;2.35;;;2.15;;
23866;SDS011;12114;53.404;-1.502;2022-09-12T16:46:16;2.85;;;2.58;;
23866;SDS011;12114;53.404;-1.502;2022-09-12T16:48:42;3.25;;;2.35;;
23866;SDS011;12114;53.404;-1.502;2022-09-12T16:51:09;2.45;;;2.25;;
23866;SDS011;12114;53.404;-1.502;2022-09-12T16:53:35;2.33;;;1.95;;
23866;SDS011;12114;53.404;-1.502;2022-09-12T16:56:01;3.75;;;1.95;;
23866;SDS011;12114;53.404;-1.502;2022-09-12T16:58:27;2.03;;;1.48;;
23866;SDS011;12114;53.404;-1.502;2022-09-12T17:01:02;1.60;;;1.35;;
23866;SDS011;12114;53.404;-1.502;2022-09-12T17:03:28;1.58;;;1.35;;
23866;SDS011;12114;53.404;-1.502;2022-09-12T17:06:05;1.55;;;1.33;;